Time;durP1;ratioP1;P1;durP2;ratioP2;P2;SDS_P1;SDS_P2;PMS_P1;PMS_P2;Temp;Humidity;BMP_temperature;BMP_pressure;BME280_temperature;BME280_humidity;BME280_pressure;Samples;Min_cycle;Max_cycle;Signal;HPM_P1;HPM_P2
2023/12/03 00:00:42;;;;;;;0.50;0.50;;;;;;;-0.73;100.00;100369.31;5018969;28;20033;-78
2023/12/03 00:03:08;;;;;;;0.50;0.50;;;;;;;-0.71;100.00;100369.22;5019580;28;20048;-77
2023/12/03 00:05:57;;;;;;;0.50;0.50;;;;;;;-0.71;100.00;100366.56;5019404;28;20048;-77
2023/12/03 00:08:49;;;;;;;0.50;0.50;;;;;;;-0.69;100.00;100364.66;5031728;28;20040;-77
2023/12/03 00:11:24;;;;;;;0.50;0.50;;;;;;;-0.75;100.00;100355.38;5018763;28;20115;-77
2023/12/03 00:13:59;;;;;;;0.40;0.40;;;;;;;-0.73;100.00;100353.47;5022354;28;20411;-77
2023/12/03 00:16:24;;;;;;;0.40;0.40;;;;;;;-0.69;100.00;100349.66;5019040;28;20044;-77
2023/12/03 00:18:52;;;;;;;0.50;0.50;;;;;;;-0.68;100.00;100350.50;5017374;28;20036;-77
2023/12/03 00:21:18;;;;;;;0.50;0.50;;;;;;;-0.67;100.00;100345.09;5019422;28;20033;-77
2023/12/03 00:23:44;;;;;;;0.50;0.50;;;;;;;-0.70;100.00;100336.56;5019447;28;20037;-77
2023/12/03 00:26:10;;;;;;;0.50;0.50;;;;;;;-0.67;100.00;100346.91;5022246;28;20039;-77
2023/12/03 00:28:35;;;;;;;0.50;0.50;;;;;;;-0.66;100.00;100351.25;5038120;28;20033;-78
2023/12/03 00:31:03;;;;;;;0.50;0.50;;;;;;;-0.66;100.00;100356.53;5039408;28;20029;-78
2023/12/03 00:33:29;;;;;;;0.50;0.50;;;;;;;-0.67;100.00;100342.44;5023208;28;20120;-77
2023/12/03 00:35:55;;;;;;;0.50;0.50;;;;;;;-0.66;100.00;100348.59;5023303;28;20132;-77
2023/12/03 00:38:21;;;;;;;0.50;0.50;;;;;;;-0.66;100.00;100343.31;5039554;28;20463;-78
2023/12/03 00:40:47;;;;;;;0.50;0.50;;;;;;;-0.65;100.00;100344.16;5023271;28;20040;-78
2023/12/03 00:43:13;;;;;;;0.50;0.50;;;;;;;-0.67;100.00;100337.16;5022975;28;20040;-78
2023/12/03 00:45:38;;;;;;;0.50;0.50;;;;;;;-0.66;100.00;100332.75;5022971;28;20075;-78
2023/12/03 00:48:04;;;;;;;0.50;0.50;;;;;;;-0.65;100.00;100344.16;5023004;28;20033;-78
2023/12/03 00:50:30;;;;;;;0.40;0.40;;;;;;;-0.65;100.00;100346.78;5022630;28;20115;-78
2023/12/03 00:52:56;;;;;;;0.50;0.50;;;;;;;-0.63;100.00;100343.09;5056511;28;20068;-79
2023/12/03 00:55:21;;;;;;;0.40;0.40;;;;;;;-0.65;100.00;100338.88;5038861;28;20452;-78
2023/12/03 00:57:47;;;;;;;0.50;0.50;;;;;;;-0.59;100.00;100335.75;5022841;28;20498;-77
2023/12/03 01:00:13;;;;;;;0.50;0.50;;;;;;;-0.56;100.00;100331.09;5022762;28;20037;-79
2023/12/03 01:02:39;;;;;;;0.40;0.40;;;;;;;-0.52;100.00;100322.00;5022664;28;20128;-78
2023/12/03 01:05:05;;;;;;;0.40;0.40;;;;;;;-0.48;100.00;100326.09;5023215;28;20123;-78
2023/12/03 01:10:45;;;;;;;0.60;0.60;;;;;;;-0.48;100.00;100310.25;5040983;28;20037;-78
2023/12/03 01:16:42;;;;;;;0.50;0.50;;;;;;;-0.29;100.00;100317.63;5052329;28;20037;-78
2023/12/03 01:19:31;;;;;;;0.50;0.50;;;;;;;-0.37;100.00;100296.22;5027216;28;20044;-78
2023/12/03 01:21:57;;;;;;;0.50;0.50;;;;;;;-0.25;100.00;100316.41;5022342;28;20041;-77
2023/12/03 01:24:22;;;;;;;0.50;0.50;;;;;;;-0.15;100.00;100318.38;5022370;28;20036;-77
2023/12/03 01:26:48;;;;;;;0.50;0.50;;;;;;;-0.05;100.00;100317.53;5022608;28;20083;-78
2023/12/03 01:29:14;;;;;;;0.50;0.50;;;;;;;0.06;100.00;100308.78;5022263;28;20476;-77
2023/12/03 01:31:40;;;;;;;0.50;0.50;;;;;;;0.15;100.00;100309.84;5022240;28;20071;-77
2023/12/03 01:34:06;;;;;;;0.40;0.40;;;;;;;0.11;100.00;100316.34;5021845;28;20060;-77
2023/12/03 01:36:31;;;;;;;0.50;0.50;;;;;;;0.10;100.00;100304.06;5022033;28;20099;-77
2023/12/03 01:38:57;;;;;;;0.50;0.50;;;;;;;0.23;100.00;100310.09;5021773;28;20040;-77
2023/12/03 01:41:23;;;;;;;0.50;0.50;;;;;;;0.25;100.00;100302.03;5037928;28;20033;-77
2023/12/03 01:43:53;;;;;;;0.50;0.50;;;;;;;0.27;100.00;100292.19;5021994;28;20061;-77
2023/12/03 01:46:20;;;;;;;0.40;0.40;;;;;;;0.32;100.00;100292.66;5054805;28;20033;-77
2023/12/03 01:48:46;;;;;;;0.50;0.50;;;;;;;0.32;100.00;100295.28;5054892;28;20041;-77
2023/12/03 01:51:11;;;;;;;0.50;0.50;;;;;;;0.32;100.00;100304.09;5021785;28;20040;-77
2023/12/03 01:53:43;;;;;;;0.50;0.50;;;;;;;0.31;100.00;100290.97;5021760;28;20048;-77
2023/12/03 01:56:10;;;;;;;0.50;0.50;;;;;;;0.34;100.00;100291.56;5037829;28;20029;-77
2023/12/03 01:58:36;;;;;;;0.40;0.40;;;;;;;0.35;100.00;100293.25;5021704;28;20132;-76
2023/12/03 02:01:02;;;;;;;0.50;0.50;;;;;;;0.37;100.00;100286.06;5021297;28;20107;-77
2023/12/03 02:03:28;;;;;;;0.50;0.50;;;;;;;0.40;100.00;100291.09;5021600;28;20058;-77
2023/12/03 02:06:14;;;;;;;0.40;0.40;;;;;;;0.37;100.00;100286.06;5021178;28;20025;-77
2023/12/03 02:08:40;;;;;;;0.50;0.50;;;;;;;0.33;100.00;100281.13;5037389;28;20072;-77
2023/12/03 02:11:06;;;;;;;0.40;0.40;;;;;;;0.31;100.00;100283.88;5021413;28;20383;-77
2023/12/03 02:13:34;;;;;;;0.50;0.50;;;;;;;0.32;100.00;100280.28;5021370;28;20383;-77
2023/12/03 02:15:59;;;;;;;0.50;0.50;;;;;;;0.35;100.00;100285.31;5054321;28;20040;-77
2023/12/03 02:18:26;;;;;;;0.50;0.50;;;;;;;0.35;100.00;100266.81;5021194;28;20037;-77
2023/12/03 02:20:54;;;;;;;0.45;0.45;;;;;;;0.30;100.00;100250.47;5021207;28;20036;-77
2023/12/03 02:23:20;;;;;;;0.50;0.50;;;;;;;0.43;100.00;100267.03;5021098;28;20045;-77
2023/12/03 02:25:47;;;;;;;0.50;0.50;;;;;;;0.42;100.00;100268.03;5021072;28;20025;-77
2023/12/03 02:28:15;;;;;;;0.50;0.50;;;;;;;0.46;100.00;100273.91;5021248;28;20036;-76
2023/12/03 02:30:41;;;;;;;0.50;0.50;;;;;;;0.52;100.00;100283.13;5020965;28;20089;-77
2023/12/03 02:33:07;;;;;;;0.50;0.50;;;;;;;0.58;100.00;100293.22;5021008;28;20139;-77
2023/12/03 02:35:33;;;;;;;0.50;0.50;;;;;;;0.62;100.00;100295.50;5020855;28;20044;-77
2023/12/03 02:37:58;;;;;;;0.50;0.50;;;;;;;0.62;100.00;100295.50;5021012;28;20052;-76
2023/12/03 02:40:24;;;;;;;0.40;0.40;;;;;;;0.62;100.00;100287.56;5020895;28;20040;-77
2023/12/03 02:42:50;;;;;;;0.40;0.40;;;;;;;0.62;100.00;100287.56;5020841;28;20120;-77
2023/12/03 02:45:15;;;;;;;0.50;0.50;;;;;;;0.67;100.00;100291.66;5020840;28;20515;-77
2023/12/03 02:47:41;;;;;;;0.50;0.50;;;;;;;0.62;100.00;100284.91;5019858;28;20032;-77
2023/12/03 02:50:07;;;;;;;0.40;0.40;;;;;;;0.63;100.00;100289.22;5021058;28;20047;-77
2023/12/03 02:52:33;;;;;;;0.50;0.50;;;;;;;0.59;100.00;100273.75;5036723;28;20098;-77
2023/12/03 02:54:58;;;;;;;0.50;0.50;;;;;;;0.59;100.00;100279.03;5020632;28;20514;-77
2023/12/03 02:57:24;;;;;;;0.40;0.40;;;;;;;0.53;100.00;100279.53;5020546;28;20054;-77
2023/12/03 02:59:50;;;;;;;0.50;0.50;;;;;;;0.45;100.00;100269.59;5053693;28;20041;-77
2023/12/03 03:02:16;;;;;;;0.40;0.40;;;;;;;0.44;100.00;100257.28;5020588;28;20033;-77
2023/12/03 03:04:42;;;;;;;0.40;0.40;;;;;;;0.42;100.00;100260.09;5020469;28;20045;-77
2023/12/03 03:07:07;;;;;;;0.50;0.50;;;;;;;0.46;100.00;100255.38;5020136;28;20120;-77
2023/12/03 03:09:33;;;;;;;0.50;0.50;;;;;;;0.50;100.00;100259.44;5019836;28;20029;-77
2023/12/03 03:11:59;;;;;;;0.40;0.40;;;;;;;0.52;100.00;100252.22;5020858;28;20037;-77
2023/12/03 03:14:25;;;;;;;0.40;0.40;;;;;;;0.57;100.00;100249.22;5020827;28;20414;-77
2023/12/03 03:16:50;;;;;;;0.50;0.50;;;;;;;0.64;100.00;100253.06;5020277;28;20479;-77
2023/12/03 03:19:16;;;;;;;0.50;0.50;;;;;;;0.68;100.00;100238.59;5036388;28;20028;-77
2023/12/03 03:21:42;;;;;;;0.50;0.50;;;;;;;0.70;100.00;100227.91;5020134;28;20037;-77
2023/12/03 03:24:08;;;;;;;0.40;0.40;;;;;;;0.68;100.00;100230.66;5020209;28;20039;-77
2023/12/03 03:26:33;;;;;;;0.50;0.50;;;;;;;0.65;100.00;100237.03;5020003;28;20154;-77
2023/12/03 03:28:59;;;;;;;0.50;0.50;;;;;;;0.60;100.00;100230.44;5020050;28;20105;-76
2023/12/03 03:31:25;;;;;;;0.40;0.40;;;;;;;0.55;100.00;100222.88;5019803;28;20032;-77
2023/12/03 03:33:51;;;;;;;0.40;0.40;;;;;;;0.56;100.00;100218.44;5020106;28;20422;-77
2023/12/03 03:36:16;;;;;;;0.43;0.43;;;;;;;0.61;100.00;100210.97;5019864;28;20076;-77
2023/12/03 03:38:45;;;;;;;0.40;0.40;;;;;;;0.65;100.00;100212.41;5019993;28;20033;-77
2023/12/03 03:41:11;;;;;;;0.50;0.50;;;;;;;0.68;100.00;100212.13;5036297;28;20467;-77
2023/12/03 03:43:37;;;;;;;0.50;0.50;;;;;;;0.70;100.00;100212.84;5019800;28;20040;-77
2023/12/03 03:46:02;;;;;;;0.50;0.50;;;;;;;0.70;100.00;100215.50;5020039;28;20119;-77
2023/12/03 03:48:28;;;;;;;0.50;0.50;;;;;;;0.70;100.00;100226.09;5019720;28;20341;-76
2023/12/03 03:50:54;;;;;;;0.40;0.40;;;;;;;0.73;100.00;100222.34;5019822;28;20434;-76
2023/12/03 03:53:31;;;;;;;0.50;0.50;;;;;;;0.72;100.00;100220.69;5019735;28;20467;-77
2023/12/03 03:55:57;;;;;;;0.40;0.40;;;;;;;0.73;100.00;100217.06;5019720;28;20043;-76
2023/12/03 03:58:22;;;;;;;0.50;0.50;;;;;;;0.72;100.00;100210.09;5019036;28;20120;-77
2023/12/03 04:00:48;;;;;;;0.50;0.50;;;;;;;0.79;100.00;100219.19;5019373;28;20438;-76
2023/12/03 04:03:14;;;;;;;0.50;0.50;;;;;;;0.82;100.00;100219.81;5019603;28;20032;-77
2023/12/03 04:05:40;;;;;;;0.50;0.50;;;;;;;0.87;100.00;100225.56;5020032;28;20037;-77
2023/12/03 04:08:05;;;;;;;0.40;0.40;;;;;;;0.89;100.00;100217.47;5035531;28;20563;-77
2023/12/03 04:10:31;;;;;;;0.40;0.40;;;;;;;0.89;100.00;100230.72;5019526;28;20032;-76
2023/12/03 04:12:57;;;;;;;0.40;0.40;;;;;;;0.91;100.00;100220.00;5019554;28;20487;-76
2023/12/03 04:15:22;;;;;;;0.50;0.50;;;;;;;0.92;100.00;100227.81;5052245;28;20387;-77
2023/12/03 04:17:48;;;;;;;0.50;0.50;;;;;;;0.92;100.00;100216.38;5019716;28;20132;-77
2023/12/03 04:20:14;;;;;;;0.70;0.70;;;;;;;0.96;100.00;100223.13;5019411;28;20040;-77
2023/12/03 04:22:40;;;;;;;0.50;0.50;;;;;;;0.98;100.00;100222.03;5035622;28;20055;-77
2023/12/03 04:25:06;;;;;;;0.50;0.50;;;;;;;0.98;100.00;100223.81;5019434;28;20119;-77
2023/12/03 04:27:32;;;;;;;0.40;0.40;;;;;;;0.99;100.00;100217.56;5018988;28;20064;-77
2023/12/03 04:29:58;;;;;;;0.50;0.50;;;;;;;0.96;100.00;100212.53;5019901;28;20076;-77
2023/12/03 04:32:23;;;;;;;0.50;0.50;;;;;;;0.99;100.00;100213.09;5019387;28;20379;-77
2023/12/03 04:34:49;;;;;;;0.50;0.50;;;;;;;1.00;100.00;100216.59;5019232;28;20044;-78
2023/12/03 04:37:15;;;;;;;0.50;0.50;;;;;;;1.02;100.00;100214.66;5019484;28;20045;-77
2023/12/03 04:39:44;;;;;;;0.50;0.50;;;;;;;1.02;100.00;100212.00;5019309;28;20403;-77
2023/12/03 04:42:09;;;;;;;0.43;0.43;;;;;;;1.02;100.00;100214.66;5018921;28;20033;-77
2023/12/03 04:44:35;;;;;;;0.40;0.40;;;;;;;1.03;100.00;100213.69;5019181;28;20533;-77
2023/12/03 04:47:01;;;;;;;0.50;0.50;;;;;;;1.05;100.00;100211.75;5019035;28;20036;-77
2023/12/03 04:49:26;;;;;;;0.40;0.40;;;;;;;1.06;100.00;100214.28;5018853;28;20108;-77
2023/12/03 04:51:52;;;;;;;0.40;0.40;;;;;;;1.09;100.00;100210.53;5019161;28;20037;-77
2023/12/03 04:54:20;;;;;;;0.50;0.50;;;;;;;1.10;100.00;100206.91;5019385;28;20048;-77
2023/12/03 04:56:45;;;;;;;0.50;0.50;;;;;;;1.13;100.00;100214.59;5035675;28;20043;-77
2023/12/03 04:59:11;;;;;;;0.50;0.50;;;;;;;1.16;100.00;100206.38;5019121;28;20378;-77
2023/12/03 05:01:37;;;;;;;0.50;0.50;;;;;;;1.17;100.00;100199.31;5019175;28;20106;-76
2023/12/03 05:04:03;;;;;;;0.40;0.40;;;;;;;1.18;100.00;100209.75;5019057;28;20090;-77
2023/12/03 05:06:28;;;;;;;0.50;0.50;;;;;;;1.18;100.00;100212.41;5018769;28;20064;-77
2023/12/03 05:08:55;;;;;;;0.40;0.40;;;;;;;1.21;100.00;100208.66;5019003;28;20041;-77
2023/12/03 05:11:20;;;;;;;0.50;0.50;;;;;;;1.23;100.00;100218.16;5021494;28;20071;-77
2023/12/03 05:13:46;;;;;;;0.40;0.40;;;;;;;1.21;100.00;100213.94;5022609;28;20036;-77
2023/12/03 05:16:12;;;;;;;0.50;0.50;;;;;;;1.22;100.00;100218.28;5022547;28;20383;-77
2023/12/03 05:18:38;;;;;;;0.50;0.50;;;;;;;1.25;100.00;100215.38;5038500;28;20123;-78
2023/12/03 05:21:04;;;;;;;0.40;0.40;;;;;;;1.21;100.00;100206.00;5022332;28;20089;-77
2023/12/03 05:23:29;;;;;;;0.50;0.50;;;;;;;1.20;100.00;100209.63;5022890;28;20033;-77
2023/12/03 05:25:57;;;;;;;0.50;0.50;;;;;;;1.25;100.00;100210.09;5022975;28;20456;-77
2023/12/03 05:28:23;;;;;;;0.40;0.40;;;;;;;1.26;100.00;100209.94;5022167;28;20033;-77
2023/12/03 05:30:49;;;;;;;0.50;0.50;;;;;;;1.24;100.00;100205.75;5055216;28;20091;-77
2023/12/03 05:33:15;;;;;;;0.50;0.50;;;;;;;1.25;100.00;100212.75;5038358;28;20586;-77
2023/12/03 05:35:41;;;;;;;0.50;0.50;;;;;;;1.21;100.00;100209.50;5021730;28;20041;-77
2023/12/03 05:38:07;;;;;;;0.50;0.50;;;;;;;1.23;100.00;100207.56;5022183;28;20095;-77
2023/12/03 05:40:33;;;;;;;0.40;0.40;;;;;;;1.23;100.00;100209.38;5039347;28;20124;-77
2023/12/03 05:43:00;;;;;;;0.50;0.50;;;;;;;1.22;100.00;100207.69;5054895;28;20108;-77
2023/12/03 05:45:25;;;;;;;0.40;0.40;;;;;;;1.21;100.00;100212.13;5054833;28;20025;-77
2023/12/03 05:47:51;;;;;;;0.50;0.50;;;;;;;1.21;100.00;100212.13;5021631;28;20124;-77
2023/12/03 05:50:17;;;;;;;0.40;0.40;;;;;;;1.22;100.00;100199.75;5021934;28;20155;-77
2023/12/03 05:52:43;;;;;;;0.50;0.50;;;;;;;1.21;100.00;100206.84;5021749;28;20163;-78
2023/12/03 05:55:08;;;;;;;0.50;0.50;;;;;;;1.22;100.00;100208.53;5021765;28;20037;-77
2023/12/03 05:57:34;;;;;;;0.50;0.50;;;;;;;1.10;100.00;100186.56;5021696;28;20106;-77
2023/12/03 06:00:00;;;;;;;0.47;0.47;;;;;;;1.19;100.00;100203.50;5021453;28;20045;-77
2023/12/03 06:02:26;;;;;;;0.40;0.40;;;;;;;1.20;100.00;100204.34;5021711;28;20045;-77
2023/12/03 06:04:51;;;;;;;0.50;0.50;;;;;;;1.21;100.00;100211.31;5021714;28;20036;-77
2023/12/03 06:07:17;;;;;;;0.40;0.40;;;;;;;1.17;100.00;100202.78;5037523;28;20387;-77
2023/12/03 06:09:43;;;;;;;0.50;0.50;;;;;;;1.20;100.00;100213.13;5021549;28;20456;-77
2023/12/03 06:12:09;;;;;;;0.43;0.43;;;;;;;1.20;100.00;100207.00;5021452;28;20472;-78
2023/12/03 06:14:34;;;;;;;0.50;0.50;;;;;;;1.19;100.00;100208.81;5021250;28;20094;-77
2023/12/03 06:17:00;;;;;;;0.50;0.50;;;;;;;1.19;100.00;100208.81;5021601;28;20052;-77
2023/12/03 06:19:26;;;;;;;0.50;0.50;;;;;;;1.20;100.00;100207.00;5021329;28;20364;-77
2023/12/03 06:21:51;;;;;;;0.40;0.40;;;;;;;1.19;100.00;100200.84;5036320;28;20063;-77
2023/12/03 06:24:17;;;;;;;0.50;0.50;;;;;;;1.19;100.00;100197.34;5021188;28;20533;-78
2023/12/03 06:26:43;;;;;;;0.40;0.40;;;;;;;1.21;100.00;100198.06;5020983;28;20033;-78
2023/12/03 06:29:09;;;;;;;0.50;0.50;;;;;;;1.20;100.00;100199.03;5021045;28;20514;-78
2023/12/03 06:31:34;;;;;;;0.40;0.40;;;;;;;1.14;100.00;100200.41;5021051;28;20041;-77
2023/12/03 06:34:00;;;;;;;0.50;0.50;;;;;;;1.13;100.00;100201.34;5037763;28;20045;-77
2023/12/03 06:36:26;;;;;;;0.50;0.50;;;;;;;1.12;100.00;100194.38;5021010;28;20373;-78
2023/12/03 06:38:53;;;;;;;0.50;0.50;;;;;;;1.12;100.00;100196.19;5020585;28;20453;-77
2023/12/03 06:41:18;;;;;;;0.50;0.50;;;;;;;1.12;100.00;100198.84;5020994;28;20037;-78
2023/12/03 06:43:44;;;;;;;0.50;0.50;;;;;;;1.11;100.00;100200.63;5020541;28;20033;-77
2023/12/03 06:46:10;;;;;;;0.50;0.50;;;;;;;1.07;100.00;100191.28;5020678;28;20037;-77
2023/12/03 06:48:36;;;;;;;0.40;0.40;;;;;;;1.13;100.00;100198.69;5020943;28;20044;-77
2023/12/03 06:51:01;;;;;;;0.50;0.50;;;;;;;1.16;100.00;100192.31;5020750;28;20048;-77
2023/12/03 06:56:38;;;;;;;0.50;0.50;;;;;;;1.21;100.00;100190.13;5022133;28;20048;-77
2023/12/03 06:59:04;;;;;;;0.50;0.50;;;;;;;1.17;100.00;100192.19;5020262;28;20044;-78
2023/12/03 07:01:29;;;;;;;0.50;0.50;;;;;;;1.20;100.00;100184.00;5020487;28;20528;-78
2023/12/03 07:03:55;;;;;;;0.40;0.40;;;;;;;1.15;100.00;100183.53;5053642;28;20048;-78
2023/12/03 07:06:21;;;;;;;0.50;0.50;;;;;;;1.16;100.00;100187.00;5020313;28;20029;-77
2023/12/03 07:08:47;;;;;;;0.50;0.50;;;;;;;1.18;100.00;100191.22;5020401;28;20471;-78
2023/12/03 07:11:15;;;;;;;0.43;0.43;;;;;;;1.07;100.00;100172.75;5020953;28;20029;-77
2023/12/03 07:13:42;;;;;;;0.50;0.50;;;;;;;1.10;100.00;100191.03;5020579;28;20458;-77
2023/12/03 07:16:09;;;;;;;0.40;0.40;;;;;;;1.05;100.00;100179.97;5020464;28;20037;-77
2023/12/03 07:18:35;;;;;;;0.40;0.40;;;;;;;1.09;100.00;100189.34;5020298;28;20032;-77
2023/12/03 07:21:00;;;;;;;0.50;0.50;;;;;;;1.13;100.00;100187.28;5020166;28;20037;-77
2023/12/03 07:23:26;;;;;;;0.50;0.50;;;;;;;1.13;100.00;100185.47;5020204;28;20064;-77
2023/12/03 07:25:52;;;;;;;0.50;0.50;;;;;;;1.12;100.00;100186.44;5036282;28;20380;-77
2023/12/03 07:28:17;;;;;;;0.50;0.50;;;;;;;1.12;100.00;100186.44;5019857;28;20032;-77
2023/12/03 07:30:43;;;;;;;0.50;0.50;;;;;;;1.15;100.00;100193.28;5019952;28;20037;-77
2023/12/03 07:33:09;;;;;;;0.50;0.50;;;;;;;1.12;100.00;100181.16;5019823;28;20486;-77
2023/12/03 07:35:34;;;;;;;0.43;0.43;;;;;;;1.11;100.00;100184.75;5019697;28;20102;-77
2023/12/03 07:38:12;;;;;;;0.50;0.50;;;;;;;1.10;100.00;100191.84;5020033;28;20051;-77
2023/12/03 07:40:38;;;;;;;0.50;0.50;;;;;;;1.07;100.00;100184.19;5020210;28;20032;-77
2023/12/03 07:43:03;;;;;;;0.50;0.50;;;;;;;1.08;100.00;100185.00;5019863;28;20031;-77
2023/12/03 07:45:29;;;;;;;0.50;0.50;;;;;;;1.09;100.00;100192.00;5020331;28;20048;-77
2023/12/03 07:47:55;;;;;;;0.50;0.50;;;;;;;1.08;100.00;100191.13;5019416;28;20533;-77
2023/12/03 07:50:20;;;;;;;0.40;0.40;;;;;;;1.05;100.00;100195.84;5019214;28;20060;-77
2023/12/03 07:52:46;;;;;;;0.40;0.40;;;;;;;1.07;100.00;100201.88;5036185;28;20460;-77
2023/12/03 07:55:12;;;;;;;0.50;0.50;;;;;;;1.11;100.00;100205.94;5019702;28;20037;-78
2023/12/03 07:57:38;;;;;;;0.50;0.50;;;;;;;1.11;100.00;100197.97;5019784;28;20041;-78
2023/12/03 08:00:06;;;;;;;0.50;0.50;;;;;;;1.14;100.00;100205.69;5019604;28;20083;-77
2023/12/03 08:02:31;;;;;;;0.50;0.50;;;;;;;1.13;100.00;100209.28;5036045;28;20064;-77
2023/12/03 08:04:57;;;;;;;0.50;0.50;;;;;;;1.11;100.00;100203.28;5019664;28;20037;-77
2023/12/03 08:07:23;;;;;;;0.50;0.50;;;;;;;1.07;100.00;100208.00;5019253;28;20044;-77
2023/12/03 08:09:50;;;;;;;0.40;0.40;;;;;;;1.03;100.00;100203.09;5019584;28;20056;-77
2023/12/03 08:12:15;;;;;;;0.40;0.40;;;;;;;1.03;100.00;100209.25;5019647;28;20032;-77
2023/12/03 08:14:41;;;;;;;0.50;0.50;;;;;;;1.01;100.00;100203.22;5019458;28;20040;-77
2023/12/03 08:17:11;;;;;;;0.50;0.50;;;;;;;1.01;100.00;100205.03;5035391;28;20495;-77
2023/12/03 08:19:38;;;;;;;0.50;0.50;;;;;;;1.03;100.00;100206.59;5019981;28;20040;-77
2023/12/03 08:22:05;;;;;;;0.50;0.50;;;;;;;1.03;100.00;100205.72;5051876;28;20021;-77
2023/12/03 08:24:31;;;;;;;0.50;0.50;;;;;;;1.05;100.00;100209.94;5035644;28;20032;-77
2023/12/03 08:26:57;;;;;;;0.50;0.50;;;;;;;1.04;100.00;100210.06;5019225;28;20078;-77
2023/12/03 08:29:22;;;;;;;0.40;0.40;;;;;;;1.08;100.00;100206.19;5018993;28;20048;-77
2023/12/03 08:31:49;;;;;;;0.50;0.50;;;;;;;1.15;100.00;100207.38;5035833;28;20127;-77
2023/12/03 08:34:16;;;;;;;0.50;0.50;;;;;;;1.17;100.00;100213.38;5035822;28;20040;-77
2023/12/03 08:36:42;;;;;;;0.40;0.40;;;;;;;1.18;100.00;100208.91;5035787;28;20467;-77
2023/12/03 08:39:08;;;;;;;0.43;0.43;;;;;;;1.19;100.00;100219.38;5019415;28;20043;-78
2023/12/03 08:41:36;;;;;;;0.50;0.50;;;;;;;1.20;100.00;100213.13;5018947;28;20059;-77
2023/12/03 08:44:02;;;;;;;0.50;0.50;;;;;;;1.22;100.00;100213.00;5019246;28;20070;-77
2023/12/03 08:46:29;;;;;;;0.40;0.40;;;;;;;1.24;100.00;100217.16;5038328;28;20040;-78
2023/12/03 08:48:55;;;;;;;0.40;0.40;;;;;;;1.25;100.00;100218.88;5023047;28;20111;-77
2023/12/03 08:51:21;;;;;;;0.40;0.40;;;;;;;1.25;100.00;100218.88;5022717;28;20123;-78
2023/12/03 08:53:47;;;;;;;0.50;0.50;;;;;;;1.29;100.00;100222.09;5022744;28;20064;-78
2023/12/03 08:56:13;;;;;;;0.40;0.40;;;;;;;1.30;100.00;100214.03;5039226;28;20038;-77
2023/12/03 08:58:40;;;;;;;0.43;0.43;;;;;;;1.31;100.00;100213.03;5021973;28;20392;-77
2023/12/03 09:01:07;;;;;;;0.50;0.50;;;;;;;1.23;100.00;100210.19;5053947;28;20036;-78
2023/12/03 09:03:39;;;;;;;0.50;0.50;;;;;;;1.19;100.00;100207.94;5020307;28;20047;-78
2023/12/03 09:06:06;;;;;;;0.50;0.50;;;;;;;1.22;100.00;100219.13;5053592;28;20139;-78
2023/12/03 09:08:32;;;;;;;0.40;0.40;;;;;;;1.22;100.00;100226.25;5035754;28;20462;-77
2023/12/03 09:10:58;;;;;;;0.50;0.50;;;;;;;1.23;100.00;100223.44;5020282;28;20068;-77
2023/12/03 09:13:24;;;;;;;0.40;0.40;;;;;;;1.21;100.00;100222.72;5020629;28;20036;-78
2023/12/03 09:15:51;;;;;;;0.50;0.50;;;;;;;1.25;100.00;100221.50;5021278;28;20533;-77
2023/12/03 09:18:17;;;;;;;0.50;0.50;;;;;;;1.28;100.00;100223.06;5038527;28;20108;-78
2023/12/03 09:20:57;;;;;;;0.50;0.50;;;;;;;1.28;100.00;100217.78;5022215;28;20522;-78
2023/12/03 09:23:23;;;;;;;0.50;0.50;;;;;;;1.43;100.00;100215.63;5054804;28;20021;-78
2023/12/03 09:25:49;;;;;;;0.50;0.50;;;;;;;1.48;100.00;100222.22;5022244;28;20395;-78
2023/12/03 09:28:15;;;;;;;0.50;0.50;;;;;;;1.58;100.00;100227.56;5022089;28;20055;-78
2023/12/03 09:30:41;;;;;;;0.50;0.50;;;;;;;1.60;100.00;100227.44;5022103;28;20025;-78
2023/12/03 09:33:06;;;;;;;0.50;0.50;;;;;;;1.50;100.00;100227.38;5022182;28;20037;-78
2023/12/03 09:35:32;;;;;;;0.50;0.50;;;;;;;1.56;100.00;100226.00;5021885;28;20442;-77
2023/12/03 09:37:58;;;;;;;0.50;0.50;;;;;;;1.49;100.00;100215.13;5021982;28;20135;-78
2023/12/03 09:40:24;;;;;;;0.50;0.50;;;;;;;1.45;100.00;100229.56;5038374;28;20033;-78
2023/12/03 09:42:52;;;;;;;0.50;0.50;;;;;;;1.43;100.00;100229.72;5021836;28;20037;-78
2023/12/03 09:49:00;;;;;;;0.50;0.50;;;;;;;1.35;100.00;100216.28;5031193;28;20041;-78
2023/12/03 09:51:29;;;;;;;0.50;0.50;;;;;;;1.43;100.00;100228.88;5035547;28;20032;-78
2023/12/03 09:53:58;;;;;;;0.50;0.50;;;;;;;1.45;100.00;100224.28;5037392;28;20051;-78
2023/12/03 09:56:25;;;;;;;0.40;0.40;;;;;;;1.46;100.00;100225.97;5020142;28;20040;-78
2023/12/03 09:58:51;;;;;;;0.50;0.50;;;;;;;1.39;100.00;100235.41;5021152;28;20041;-77
2023/12/03 10:01:17;;;;;;;0.50;0.50;;;;;;;1.38;100.00;100229.28;5022489;28;20090;-78
2023/12/03 10:03:42;;;;;;;0.50;0.50;;;;;;;1.39;100.00;100241.53;5021621;28;20103;-78
2023/12/03 10:06:10;;;;;;;0.50;0.50;;;;;;;1.38;100.00;100229.28;5021528;28;20045;-78
2023/12/03 10:08:36;;;;;;;0.50;0.50;;;;;;;1.35;100.00;100228.66;5021203;28;20047;-77
2023/12/03 10:11:04;;;;;;;0.50;0.50;;;;;;;1.34;100.00;100234.94;5022026;28;20040;-78
2023/12/03 10:13:31;;;;;;;0.50;0.50;;;;;;;1.37;100.00;100232.03;5021316;28;20043;-79
2023/12/03 10:15:57;;;;;;;0.50;0.50;;;;;;;1.39;100.00;100232.75;5038015;28;20526;-78
2023/12/03 10:18:23;;;;;;;0.50;0.50;;;;;;;1.31;100.00;100234.22;5020992;28;20036;-78
2023/12/03 10:21:03;;;;;;;0.50;0.50;;;;;;;1.20;100.00;100231.66;5037227;28;20033;-78
2023/12/03 10:23:29;;;;;;;0.50;0.50;;;;;;;1.20;100.00;100234.31;5020996;28;20364;-78
2023/12/03 10:26:08;;;;;;;0.50;0.50;;;;;;;1.19;100.00;100240.56;5020996;28;20037;-78
2023/12/03 10:28:34;;;;;;;0.50;0.50;;;;;;;1.14;100.00;100234.81;5037407;28;20041;-78
2023/12/03 10:31:03;;;;;;;0.50;0.50;;;;;;;1.10;100.00;100223.63;5020116;28;20025;-78
2023/12/03 10:33:29;;;;;;;0.50;0.50;;;;;;;1.20;100.00;100230.81;5053413;28;20457;-77
2023/12/03 10:36:00;;;;;;;0.50;0.50;;;;;;;1.27;100.00;100243.44;5037187;28;20033;-78
2023/12/03 10:38:26;;;;;;;0.50;0.50;;;;;;;1.29;100.00;100235.31;5020913;28;20029;-78
2023/12/03 10:40:52;;;;;;;0.50;0.50;;;;;;;1.29;100.00;100238.81;5020877;28;20032;-77
2023/12/03 10:43:17;;;;;;;0.50;0.50;;;;;;;1.31;100.00;100239.53;5020855;28;20040;-77
2023/12/03 10:45:48;;;;;;;0.50;0.50;;;;;;;1.33;100.00;100230.63;5020726;28;20048;-78
2023/12/03 10:48:14;;;;;;;0.50;0.50;;;;;;;1.46;100.00;100242.72;5053680;28;20044;-78
2023/12/03 10:50:43;;;;;;;0.50;0.50;;;;;;;1.45;100.00;100240.19;5020686;28;20379;-78
2023/12/03 10:53:10;;;;;;;0.50;0.50;;;;;;;1.42;100.00;100240.44;5021046;28;20119;-77
2023/12/03 10:55:35;;;;;;;0.50;0.50;;;;;;;1.40;100.00;100234.41;5020618;28;20033;-77
2023/12/03 10:58:05;;;;;;;0.50;0.50;;;;;;;1.37;100.00;100229.38;5020619;28;20123;-77
2023/12/03 11:00:56;;;;;;;0.43;0.43;;;;;;;1.37;100.00;100232.03;5020446;28;20036;-77
2023/12/03 11:03:47;;;;;;;0.50;0.50;;;;;;;1.35;100.00;100223.38;5036890;28;20525;-77
2023/12/03 11:06:14;;;;;;;0.43;0.43;;;;;;;1.27;100.00;100229.31;5036168;28;20045;-77
2023/12/03 11:08:40;;;;;;;0.50;0.50;;;;;;;1.18;100.00;100217.69;5019892;28;20468;-78
2023/12/03 11:11:09;;;;;;;0.50;0.50;;;;;;;1.07;100.00;100223.06;5020302;28;20124;-78
2023/12/03 11:13:36;;;;;;;0.50;0.50;;;;;;;0.94;100.00;100214.44;5020212;28;20068;-78
2023/12/03 11:16:35;;;;;;;0.50;0.50;;;;;;;0.81;100.00;100219.91;5020117;28;20041;-78
2023/12/03 11:19:43;;;;;;;0.50;0.50;;;;;;;0.70;100.00;100215.50;4932379;29;20071;-78
2023/12/03 11:22:33;;;;;;;0.50;0.50;;;;;;;0.85;100.00;100226.66;4980812;28;20041;-78
2023/12/03 11:25:09;;;;;;;0.50;0.50;;;;;;;0.95;100.00;100230.19;5053295;28;20094;-77
2023/12/03 11:27:34;;;;;;;0.50;0.50;;;;;;;1.02;100.00;100225.25;5036267;28;20131;-78
2023/12/03 11:30:04;;;;;;;0.52;0.52;;;;;;;1.08;100.00;100222.91;5020004;28;20053;-78
2023/12/03 11:32:29;;;;;;;0.50;0.50;;;;;;;1.16;100.00;100214.31;5020223;28;20399;-78
2023/12/03 11:35:16;;;;;;;0.50;0.50;;;;;;;1.44;100.00;100212.84;5020070;28;20033;-78
2023/12/03 11:37:49;;;;;;;0.50;0.50;;;;;;;1.61;100.00;100203.44;5036350;28;20051;-78